sensor_id;sensor_type;location;lat;lon;timestamp;pressure;altitude;pressure_sealevel;temperature;humidity
81387;BME280;70842;50.744;7.114;2023-07-29T00:02:25;100315.69;;;20.09;79.65
81387;BME280;70842;50.744;7.114;2023-07-29T00:04:52;100304.69;;;20.25;79.29
81387;BME280;70842;50.744;7.114;2023-07-29T00:07:19;100303.50;;;20.34;78.12
81387;BME280;70842;50.744;7.114;2023-07-29T00:09:45;100305.13;;;20.29;78.76
81387;BME280;70842;50.744;7.114;2023-07-29T00:12:12;100309.16;;;20.18;79.12
81387;BME280;70842;50.744;7.114;2023-07-29T00:14:38;100300.81;;;20.13;79.38
81387;BME280;70842;50.744;7.114;2023-07-29T00:17:04;100307.47;;;20.17;79.35
81387;BME280;70842;50.744;7.114;2023-07-29T00:19:31;100296.84;;;20.30;79.03
81387;BME280;70842;50.744;7.114;2023-07-29T00:21:58;100295.78;;;20.52;78.10
81387;BME280;70842;50.744;7.114;2023-07-29T00:24:25;100289.25;;;20.34;78.38
81387;BME280;70842;50.744;7.114;2023-07-29T00:26:51;100293.25;;;20.44;78.26
81387;BME280;70842;50.744;7.114;2023-07-29T00:29:17;100292.25;;;20.52;78.02
81387;BME280;70842;50.744;7.114;2023-07-29T00:31:44;100284.44;;;20.29;78.78
81387;BME280;70842;50.744;7.114;2023-07-29T00:34:10;100289.13;;;20.48;78.23
81387;BME280;70842;50.744;7.114;2023-07-29T00:36:36;100285.81;;;20.46;78.04
81387;BME280;70842;50.744;7.114;2023-07-29T00:39:03;100294.41;;;20.35;78.16
81387;BME280;70842;50.744;7.114;2023-07-29T00:41:30;100291.34;;;20.17;78.72
81387;BME280;70842;50.744;7.114;2023-07-29T00:43:56;100292.63;;;20.49;78.07
81387;BME280;70842;50.744;7.114;2023-07-29T00:46:23;100292.38;;;20.37;78.03
81387;BME280;70842;50.744;7.114;2023-07-29T00:48:50;100279.34;;;20.19;78.17
81387;BME280;70842;50.744;7.114;2023-07-29T00:51:17;100279.66;;;20.25;78.11
81387;BME280;70842;50.744;7.114;2023-07-29T00:53:43;100271.22;;;20.13;78.40
81387;BME280;70842;50.744;7.114;2023-07-29T00:56:10;100278.16;;;20.50;77.44
81387;BME280;70842;50.744;7.114;2023-07-29T00:58:37;100281.34;;;20.32;77.68
81387;BME280;70842;50.744;7.114;2023-07-29T01:01:03;100265.44;;;20.09;78.40
81387;BME280;70842;50.744;7.114;2023-07-29T01:03:29;100263.72;;;20.30;77.91
81387;BME280;70842;50.744;7.114;2023-07-29T01:06:15;100265.44;;;20.09;78.04
81387;BME280;70842;50.744;7.114;2023-07-29T01:14:19;100266.19;;;20.25;78.11
81387;BME280;70842;50.744;7.114;2023-07-29T01:16:52;100269.81;;;20.17;77.89
81387;BME280;70842;50.744;7.114;2023-07-29T01:19:55;100263.72;;;20.23;77.84
81387;BME280;70842;50.744;7.114;2023-07-29T01:22:25;100260.50;;;20.41;77.25
81387;BME280;70842;50.744;7.114;2023-07-29T01:24:52;100253.56;;;20.59;76.39
81387;BME280;70842;50.744;7.114;2023-07-29T01:27:18;100259.28;;;20.43;77.19
81387;BME280;70842;50.744;7.114;2023-07-29T01:29:45;100259.75;;;20.53;77.08
81387;BME280;70842;50.744;7.114;2023-07-29T01:32:19;100256.16;;;20.40;77.71
81387;BME280;70842;50.744;7.114;2023-07-29T01:34:57;100254.81;;;20.57;76.71
81387;BME280;70842;50.744;7.114;2023-07-29T01:37:26;100253.13;;;20.56;77.32
81387;BME280;70842;50.744;7.114;2023-07-29T01:39:57;100249.81;;;20.54;76.97
81387;BME280;70842;50.744;7.114;2023-07-29T01:42:25;100255.41;;;20.52;77.25
81387;BME280;70842;50.744;7.114;2023-07-29T01:44:56;100246.06;;;20.48;77.44
81387;BME280;70842;50.744;7.114;2023-07-29T01:47:22;100251.72;;;20.60;77.33
81387;BME280;70842;50.744;7.114;2023-07-29T01:49:49;100251.38;;;20.35;78.32
81387;BME280;70842;50.744;7.114;2023-07-29T01:52:15;100249.00;;;20.60;77.54
81387;BME280;70842;50.744;7.114;2023-07-29T01:54:42;100243.59;;;20.53;77.53
81387;BME280;70842;50.744;7.114;2023-07-29T01:57:08;100238.25;;;20.60;77.53
81387;BME280;70842;50.744;7.114;2023-07-29T01:59:34;100236.25;;;20.75;76.82
81387;BME280;70842;50.744;7.114;2023-07-29T02:02:01;100239.72;;;20.62;76.95
81387;BME280;70842;50.744;7.114;2023-07-29T02:04:27;100232.03;;;20.59;77.32
81387;BME280;70842;50.744;7.114;2023-07-29T02:06:54;100232.81;;;20.53;78.15
81387;BME280;70842;50.744;7.114;2023-07-29T02:09:21;100236.75;;;20.51;78.51
81387;BME280;70842;50.744;7.114;2023-07-29T02:11:47;100230.22;;;20.32;79.08
81387;BME280;70842;50.744;7.114;2023-07-29T02:14:14;100227.84;;;20.50;78.31
81387;BME280;70842;50.744;7.114;2023-07-29T02:16:40;100226.34;;;20.41;78.75
81387;BME280;70842;50.744;7.114;2023-07-29T02:19:08;100217.66;;;20.39;78.86
81387;BME280;70842;50.744;7.114;2023-07-29T02:21:34;100221.88;;;20.20;79.75
81387;BME280;70842;50.744;7.114;2023-07-29T02:24:01;100223.81;;;20.33;79.34
81387;BME280;70842;50.744;7.114;2023-07-29T02:26:27;100218.84;;;20.09;80.33
81387;BME280;70842;50.744;7.114;2023-07-29T02:28:54;100218.16;;;20.21;79.98
81387;BME280;70842;50.744;7.114;2023-07-29T02:31:22;100207.97;;;20.51;78.77
81387;BME280;70842;50.744;7.114;2023-07-29T02:33:50;100210.56;;;20.04;80.60
81387;BME280;70842;50.744;7.114;2023-07-29T02:36:18;100212.06;;;20.13;80.69
81387;BME280;70842;50.744;7.114;2023-07-29T02:38:44;100210.41;;;20.12;80.66
81387;BME280;70842;50.744;7.114;2023-07-29T02:41:11;100218.16;;;20.21;80.32
81387;BME280;70842;50.744;7.114;2023-07-29T02:43:48;100230.63;;;20.29;80.01
81387;BME280;70842;50.744;7.114;2023-07-29T02:46:15;100231.94;;;20.12;80.40
81387;BME280;70842;50.744;7.114;2023-07-29T02:48:43;100237.38;;;20.46;79.34
81387;BME280;70842;50.744;7.114;2023-07-29T02:51:10;100234.34;;;20.62;78.77
81387;BME280;70842;50.744;7.114;2023-07-29T02:53:36;100222.09;;;20.60;78.93
81387;BME280;70842;50.744;7.114;2023-07-29T02:56:04;100229.25;;;20.40;79.38
81387;BME280;70842;50.744;7.114;2023-07-29T02:58:30;100246.69;;;20.50;78.99
81387;BME280;70842;50.744;7.114;2023-07-29T03:01:03;100248.03;;;20.33;79.84
81387;BME280;70842;50.744;7.114;2023-07-29T03:03:31;100245.88;;;20.22;79.27
81387;BME280;70842;50.744;7.114;2023-07-29T03:06:08;100241.78;;;20.26;78.84
81387;BME280;70842;50.744;7.114;2023-07-29T03:08:35;100235.47;;;20.12;78.05
81387;BME280;70842;50.744;7.114;2023-07-29T03:11:07;100230.88;;;19.85;78.39
81387;BME280;70842;50.744;7.114;2023-07-29T03:13:33;100236.19;;;20.28;76.81
81387;BME280;70842;50.744;7.114;2023-07-29T03:16:10;100240.19;;;20.38;77.06
81387;BME280;70842;50.744;7.114;2023-07-29T03:18:38;100227.41;;;20.19;77.45
81387;BME280;70842;50.744;7.114;2023-07-29T03:21:05;100218.03;;;20.36;76.85
81387;BME280;70842;50.744;7.114;2023-07-29T03:23:32;100234.25;;;20.49;76.01
81387;BME280;70842;50.744;7.114;2023-07-29T03:26:00;100248.78;;;20.20;76.44
81387;BME280;70842;50.744;7.114;2023-07-29T03:28:28;100247.44;;;20.10;75.79
81387;BME280;70842;50.744;7.114;2023-07-29T03:30:55;100250.91;;;20.04;75.68
81387;BME280;70842;50.744;7.114;2023-07-29T03:33:22;100252.53;;;20.26;75.78
81387;BME280;70842;50.744;7.114;2023-07-29T03:35:49;100258.25;;;19.47;78.60
81387;BME280;70842;50.744;7.114;2023-07-29T03:38:15;100261.16;;;19.52;79.81
81387;BME280;70842;50.744;7.114;2023-07-29T03:40:42;100263.22;;;19.50;79.70
81387;BME280;70842;50.744;7.114;2023-07-29T03:43:09;100267.75;;;19.70;79.18
81387;BME280;70842;50.744;7.114;2023-07-29T03:45:36;100251.13;;;19.60;80.08
81387;BME280;70842;50.744;7.114;2023-07-29T03:48:03;100246.66;;;19.67;80.24
81387;BME280;70842;50.744;7.114;2023-07-29T03:50:30;100257.81;;;19.92;79.30
81387;BME280;70842;50.744;7.114;2023-07-29T03:52:56;100257.34;;;20.09;78.73
81387;BME280;70842;50.744;7.114;2023-07-29T03:55:23;100254.75;;;19.95;78.67
81387;BME280;70842;50.744;7.114;2023-07-29T03:57:49;100231.22;;;19.76;79.61
81387;BME280;70842;50.744;7.114;2023-07-29T04:00:15;100218.38;;;19.99;79.02
81387;BME280;70842;50.744;7.114;2023-07-29T04:02:42;100226.66;;;19.97;79.13
81387;BME280;70842;50.744;7.114;2023-07-29T04:05:09;100229.97;;;19.99;79.41
81387;BME280;70842;50.744;7.114;2023-07-29T04:07:35;100238.03;;;19.51;80.72
81387;BME280;70842;50.744;7.114;2023-07-29T04:10:02;100253.25;;;19.29;81.60
81387;BME280;70842;50.744;7.114;2023-07-29T04:12:30;100257.69;;;19.36;81.36
81387;BME280;70842;50.744;7.114;2023-07-29T04:14:56;100268.78;;;19.12;82.64
81387;BME280;70842;50.744;7.114;2023-07-29T04:17:23;100265.41;;;19.25;82.15
81387;BME280;70842;50.744;7.114;2023-07-29T04:19:49;100256.25;;;19.34;81.95
81387;BME280;70842;50.744;7.114;2023-07-29T04:22:16;100259.31;;;19.16;82.57
81387;BME280;70842;50.744;7.114;2023-07-29T04:24:42;100266.59;;;19.37;81.44
81387;BME280;70842;50.744;7.114;2023-07-29T04:27:09;100255.16;;;19.50;81.08
81387;BME280;70842;50.744;7.114;2023-07-29T04:29:35;100258.59;;;19.43;81.55
81387;BME280;70842;50.744;7.114;2023-07-29T04:32:05;100262.34;;;19.42;81.58
81387;BME280;70842;50.744;7.114;2023-07-29T04:34:32;100251.97;;;19.61;80.61
81387;BME280;70842;50.744;7.114;2023-07-29T04:36:58;100247.09;;;19.71;80.43
81387;BME280;70842;50.744;7.114;2023-07-29T04:39:24;100248.91;;;19.42;81.42
81387;BME280;70842;50.744;7.114;2023-07-29T04:41:51;100255.50;;;19.40;81.38
81387;BME280;70842;50.744;7.114;2023-07-29T04:44:17;100249.34;;;19.46;81.56
81387;BME280;70842;50.744;7.114;2023-07-29T04:46:44;100252.75;;;19.55;81.49
81387;BME280;70842;50.744;7.114;2023-07-29T04:49:10;100258.19;;;19.61;81.11
81387;BME280;70842;50.744;7.114;2023-07-29T04:51:36;100257.06;;;19.56;81.56
81387;BME280;70842;50.744;7.114;2023-07-29T04:54:03;100260.28;;;19.30;82.28
81387;BME280;70842;50.744;7.114;2023-07-29T04:56:30;100270.78;;;19.61;81.28
81387;BME280;70842;50.744;7.114;2023-07-29T04:58:57;100269.19;;;19.30;82.13
81387;BME280;70842;50.744;7.114;2023-07-29T05:01:23;100279.78;;;19.17;82.97
81387;BME280;70842;50.744;7.114;2023-07-29T05:03:50;100272.88;;;19.08;83.33
81387;BME280;70842;50.744;7.114;2023-07-29T05:06:16;100264.25;;;19.13;83.45
81387;BME280;70842;50.744;7.114;2023-07-29T05:08:42;100265.03;;;19.64;81.47
81387;BME280;70842;50.744;7.114;2023-07-29T05:11:09;100266.41;;;19.60;81.46
81387;BME280;70842;50.744;7.114;2023-07-29T05:13:36;100266.59;;;19.79;80.76
81387;BME280;70842;50.744;7.114;2023-07-29T05:16:02;100273.53;;;19.67;81.46
81387;BME280;70842;50.744;7.114;2023-07-29T05:18:29;100269.28;;;19.79;81.29
81387;BME280;70842;50.744;7.114;2023-07-29T05:20:55;100283.00;;;19.84;81.36
81387;BME280;70842;50.744;7.114;2023-07-29T05:23:22;100283.19;;;20.04;80.90
81387;BME280;70842;50.744;7.114;2023-07-29T05:25:48;100273.88;;;20.06;80.43
81387;BME280;70842;50.744;7.114;2023-07-29T05:28:14;100274.38;;;20.16;80.33
81387;BME280;70842;50.744;7.114;2023-07-29T05:30:44;100266.94;;;20.18;80.16
81387;BME280;70842;50.744;7.114;2023-07-29T05:33:10;100273.22;;;20.26;80.10
81387;BME280;70842;50.744;7.114;2023-07-29T05:35:37;100283.97;;;20.26;80.18
81387;BME280;70842;50.744;7.114;2023-07-29T05:38:03;100295.22;;;20.29;80.09
81387;BME280;70842;50.744;7.114;2023-07-29T05:40:32;100296.06;;;20.36;79.63
81387;BME280;70842;50.744;7.114;2023-07-29T05:42:58;100302.28;;;20.37;80.13
81387;BME280;70842;50.744;7.114;2023-07-29T05:45:25;100305.19;;;20.35;80.39
81387;BME280;70842;50.744;7.114;2023-07-29T05:47:51;100291.53;;;20.37;80.09
81387;BME280;70842;50.744;7.114;2023-07-29T05:50:18;100293.09;;;20.25;80.34
81387;BME280;70842;50.744;7.114;2023-07-29T05:52:44;100286.88;;;20.24;80.59
81387;BME280;70842;50.744;7.114;2023-07-29T05:55:11;100291.34;;;20.17;81.10
81387;BME280;70842;50.744;7.114;2023-07-29T05:57:37;100281.50;;;20.24;80.80
81387;BME280;70842;50.744;7.114;2023-07-29T06:00:05;100285.31;;;20.36;80.22
81387;BME280;70842;50.744;7.114;2023-07-29T06:02:32;100299.53;;;20.30;80.82
81387;BME280;70842;50.744;7.114;2023-07-29T06:04:58;100299.53;;;20.30;80.52
81387;BME280;70842;50.744;7.114;2023-07-29T06:07:25;100294.63;;;20.34;80.34
81387;BME280;70842;50.744;7.114;2023-07-29T06:09:56;100311.84;;;20.39;80.58
81387;BME280;70842;50.744;7.114;2023-07-29T06:12:22;100313.19;;;20.56;79.80
81387;BME280;70842;50.744;7.114;2023-07-29T06:14:48;100324.41;;;20.60;79.57
81387;BME280;70842;50.744;7.114;2023-07-29T06:17:15;100329.41;;;20.63;79.20
81387;BME280;70842;50.744;7.114;2023-07-29T06:19:41;100329.41;;;20.35;80.54
81387;BME280;70842;50.744;7.114;2023-07-29T06:22:09;100331.16;;;20.49;79.82
81387;BME280;70842;50.744;7.114;2023-07-29T06:24:35;100328.09;;;20.52;79.70
81387;BME280;70842;50.744;7.114;2023-07-29T06:27:02;100334.31;;;20.53;79.42
81387;BME280;70842;50.744;7.114;2023-07-29T06:29:29;100341.78;;;20.57;80.14
81387;BME280;70842;50.744;7.114;2023-07-29T06:31:55;100343.66;;;20.29;80.68
81387;BME280;70842;50.744;7.114;2023-07-29T06:34:22;100347.50;;;20.48;80.22
81387;BME280;70842;50.744;7.114;2023-07-29T06:36:51;100344.72;;;20.62;78.91
81387;BME280;70842;50.744;7.114;2023-07-29T06:39:18;100344.91;;;20.61;78.37
81387;BME280;70842;50.744;7.114;2023-07-29T06:41:44;100351.38;;;20.66;78.58
81387;BME280;70842;50.744;7.114;2023-07-29T06:44:10;100349.94;;;20.70;78.33
81387;BME280;70842;50.744;7.114;2023-07-29T06:46:37;100355.41;;;20.83;77.89
81387;BME280;70842;50.744;7.114;2023-07-29T06:49:05;100348.56;;;20.26;76.97
81387;BME280;70842;50.744;7.114;2023-07-29T06:51:31;100342.16;;;20.05;77.72
81387;BME280;70842;50.744;7.114;2023-07-29T06:54:03;100344.06;;;20.33;77.13
81387;BME280;70842;50.744;7.114;2023-07-29T06:56:30;100343.28;;;20.39;76.82
81387;BME280;70842;50.744;7.114;2023-07-29T06:58:56;100345.78;;;20.40;77.35
81387;BME280;70842;50.744;7.114;2023-07-29T07:01:23;100341.69;;;20.72;76.94
81387;BME280;70842;50.744;7.114;2023-07-29T07:03:49;100344.25;;;20.52;75.76
81387;BME280;70842;50.744;7.114;2023-07-29T07:06:16;100348.97;;;20.78;75.76
81387;BME280;70842;50.744;7.114;2023-07-29T07:08:42;100348.09;;;20.71;76.00
81387;BME280;70842;50.744;7.114;2023-07-29T07:11:10;100348.56;;;20.81;75.79
81387;BME280;70842;50.744;7.114;2023-07-29T07:13:36;100350.94;;;20.63;76.16
81387;BME280;70842;50.744;7.114;2023-07-29T07:16:03;100359.66;;;20.37;76.87
81387;BME280;70842;50.744;7.114;2023-07-29T07:18:29;100365.94;;;20.51;76.17
81387;BME280;70842;50.744;7.114;2023-07-29T07:20:55;100376.38;;;20.60;76.45
81387;BME280;70842;50.744;7.114;2023-07-29T07:23:22;100373.63;;;20.26;77.20
81387;BME280;70842;50.744;7.114;2023-07-29T07:25:48;100377.56;;;20.51;75.92
81387;BME280;70842;50.744;7.114;2023-07-29T07:28:15;100375.97;;;20.57;76.52
81387;BME280;70842;50.744;7.114;2023-07-29T07:30:41;100373.94;;;20.65;75.04
81387;BME280;70842;50.744;7.114;2023-07-29T07:33:08;100375.00;;;20.43;75.45
81387;BME280;70842;50.744;7.114;2023-07-29T07:35:35;100372.69;;;20.40;76.52
81387;BME280;70842;50.744;7.114;2023-07-29T07:38:02;100376.06;;;20.49;75.75
81387;BME280;70842;50.744;7.114;2023-07-29T07:40:33;100373.06;;;20.58;76.32
81387;BME280;70842;50.744;7.114;2023-07-29T07:42:59;100385.84;;;20.77;75.33
81387;BME280;70842;50.744;7.114;2023-07-29T07:45:25;100382.41;;;20.62;73.83
81387;BME280;70842;50.744;7.114;2023-07-29T07:47:52;100387.00;;;20.68;75.31
81387;BME280;70842;50.744;7.114;2023-07-29T07:50:21;100384.47;;;20.60;74.17
81387;BME280;70842;50.744;7.114;2023-07-29T07:52:50;100370.00;;;20.95;72.03
81387;BME280;70842;50.744;7.114;2023-07-29T07:55:16;100387.94;;;21.10;73.60
81387;BME280;70842;50.744;7.114;2023-07-29T07:57:43;100372.06;;;21.28;72.25
81387;BME280;70842;50.744;7.114;2023-07-29T08:00:09;100364.13;;;21.13;72.98
81387;BME280;70842;50.744;7.114;2023-07-29T08:02:36;100366.41;;;20.82;73.45
81387;BME280;70842;50.744;7.114;2023-07-29T08:05:03;100366.63;;;21.21;72.07
81387;BME280;70842;50.744;7.114;2023-07-29T08:07:29;100371.47;;;20.98;70.91
81387;BME280;70842;50.744;7.114;2023-07-29T08:09:56;100365.19;;;20.84;72.54
81387;BME280;70842;50.744;7.114;2023-07-29T08:12:22;100375.13;;;20.56;72.71
81387;BME280;70842;50.744;7.114;2023-07-29T08:14:49;100392.00;;;20.71;73.16
81387;BME280;70842;50.744;7.114;2023-07-29T08:17:15;100382.88;;;20.72;73.23
81387;BME280;70842;50.744;7.114;2023-07-29T08:19:42;100381.28;;;20.78;70.34
81387;BME280;70842;50.744;7.114;2023-07-29T08:22:08;100388.16;;;20.53;69.99
81387;BME280;70842;50.744;7.114;2023-07-29T08:24:35;100374.59;;;21.02;69.58
81387;BME280;70842;50.744;7.114;2023-07-29T08:27:01;100385.28;;;21.16;69.20
81387;BME280;70842;50.744;7.114;2023-07-29T08:29:27;100384.94;;;21.32;69.87
81387;BME280;70842;50.744;7.114;2023-07-29T08:31:54;100386.69;;;21.53;68.79
81387;BME280;70842;50.744;7.114;2023-07-29T08:34:21;100393.00;;;21.73;69.03
81387;BME280;70842;50.744;7.114;2023-07-29T08:36:48;100391.75;;;21.75;67.68
81387;BME280;70842;50.744;7.114;2023-07-29T08:39:14;100391.94;;;21.61;67.83
81387;BME280;70842;50.744;7.114;2023-07-29T08:41:49;100398.75;;;20.88;65.67
81387;BME280;70842;50.744;7.114;2023-07-29T08:44:30;100391.66;;;20.81;63.67
81387;BME280;70842;50.744;7.114;2023-07-29T08:46:56;100404.31;;;20.59;62.94
81387;BME280;70842;50.744;7.114;2023-07-29T08:49:23;100403.75;;;20.64;65.46
81387;BME280;70842;50.744;7.114;2023-07-29T08:51:53;100409.00;;;20.72;63.76
81387;BME280;70842;50.744;7.114;2023-07-29T08:54:20;100409.03;;;21.06;62.96
81387;BME280;70842;50.744;7.114;2023-07-29T08:56:46;100408.91;;;20.86;64.30
81387;BME280;70842;50.744;7.114;2023-07-29T08:59:13;100405.50;;;20.50;64.27
81387;BME280;70842;50.744;7.114;2023-07-29T09:01:41;100402.31;;;20.61;63.12
81387;BME280;70842;50.744;7.114;2023-07-29T09:04:07;100405.09;;;20.53;64.89
81387;BME280;70842;50.744;7.114;2023-07-29T09:06:35;100403.84;;;20.49;64.75
81387;BME280;70842;50.744;7.114;2023-07-29T09:09:02;100414.38;;;20.44;65.42
81387;BME280;70842;50.744;7.114;2023-07-29T09:11:29;100422.25;;;20.46;64.54
81387;BME280;70842;50.744;7.114;2023-07-29T09:13:55;100412.06;;;20.41;65.50
81387;BME280;70842;50.744;7.114;2023-07-29T09:16:22;100415.94;;;20.60;65.16
81387;BME280;70842;50.744;7.114;2023-07-29T09:18:49;100412.22;;;20.61;66.04
81387;BME280;70842;50.744;7.114;2023-07-29T09:21:25;100410.16;;;20.63;66.12
81387;BME280;70842;50.744;7.114;2023-07-29T09:23:53;100414.72;;;20.90;66.01
81387;BME280;70842;50.744;7.114;2023-07-29T09:26:26;100410.50;;;20.81;65.46
81387;BME280;70842;50.744;7.114;2023-07-29T09:28:54;100414.94;;;20.88;66.25
81387;BME280;70842;50.744;7.114;2023-07-29T09:31:22;100401.38;;;21.03;65.10
81387;BME280;70842;50.744;7.114;2023-07-29T09:33:53;100406.28;;;20.99;65.12
81387;BME280;70842;50.744;7.114;2023-07-29T09:36:21;100399.94;;;21.07;65.28
81387;BME280;70842;50.744;7.114;2023-07-29T09:38:48;100411.34;;;21.09;65.62
81387;BME280;70842;50.744;7.114;2023-07-29T09:41:15;100420.22;;;21.03;65.61
81387;BME280;70842;50.744;7.114;2023-07-29T09:43:41;100414.63;;;21.39;63.27
81387;BME280;70842;50.744;7.114;2023-07-29T09:46:08;100413.84;;;21.51;64.88
81387;BME280;70842;50.744;7.114;2023-07-29T09:48:35;100408.78;;;21.29;63.29
81387;BME280;70842;50.744;7.114;2023-07-29T09:51:12;100419.31;;;21.64;63.18
81387;BME280;70842;50.744;7.114;2023-07-29T09:53:42;100415.00;;;21.76;63.90
81387;BME280;70842;50.744;7.114;2023-07-29T09:56:13;100421.22;;;21.30;62.41
81387;BME280;70842;50.744;7.114;2023-07-29T09:58:42;100425.16;;;21.34;64.24
81387;BME280;70842;50.744;7.114;2023-07-29T10:01:10;100421.66;;;21.33;64.63
81387;BME280;70842;50.744;7.114;2023-07-29T10:03:37;100419.72;;;21.27;64.23
81387;BME280;70842;50.744;7.114;2023-07-29T10:06:06;100425.78;;;21.36;65.62
81387;BME280;70842;50.744;7.114;2023-07-29T10:08:33;100413.56;;;21.40;64.33
81387;BME280;70842;50.744;7.114;2023-07-29T10:11:07;100422.16;;;21.50;63.67
81387;BME280;70842;50.744;7.114;2023-07-29T10:13:35;100428.97;;;21.46;63.50
81387;BME280;70842;50.744;7.114;2023-07-29T10:16:02;100418.84;;;21.54;63.20
81387;BME280;70842;50.744;7.114;2023-07-29T10:18:30;100423.19;;;21.55;63.77
81387;BME280;70842;50.744;7.114;2023-07-29T10:20:58;100433.66;;;21.78;63.58
81387;BME280;70842;50.744;7.114;2023-07-29T10:23:26;100442.50;;;21.18;64.48
81387;BME280;70842;50.744;7.114;2023-07-29T10:26:02;100448.09;;;20.95;65.08
81387;BME280;70842;50.744;7.114;2023-07-29T10:28:31;100453.41;;;20.82;65.77
81387;BME280;70842;50.744;7.114;2023-07-29T10:30:59;100448.38;;;20.31;69.03
81387;BME280;70842;50.744;7.114;2023-07-29T10:33:26;100453.25;;;20.42;70.43
81387;BME280;70842;50.744;7.114;2023-07-29T10:35:53;100451.03;;;20.09;72.59
81387;BME280;70842;50.744;7.114;2023-07-29T10:38:23;100449.34;;;20.08;72.33
81387;BME280;70842;50.744;7.114;2023-07-29T10:40:59;100455.91;;;20.35;72.87
81387;BME280;70842;50.744;7.114;2023-07-29T10:43:28;100455.88;;;20.56;74.63
81387;BME280;70842;50.744;7.114;2023-07-29T10:46:14;100449.19;;;20.73;73.60
81387;BME280;70842;50.744;7.114;2023-07-29T10:48:51;100459.09;;;20.24;76.08
81387;BME280;70842;50.744;7.114;2023-07-29T10:51:34;100453.63;;;20.39;74.39
81387;BME280;70842;50.744;7.114;2023-07-29T10:54:12;100448.72;;;20.42;74.55
81387;BME280;70842;50.744;7.114;2023-07-29T10:56:48;100446.88;;;20.70;74.96
81387;BME280;70842;50.744;7.114;2023-07-29T11:01:57;100448.59;;;20.50;73.11
81387;BME280;70842;50.744;7.114;2023-07-29T11:04:29;100447.31;;;20.46;73.84
81387;BME280;70842;50.744;7.114;2023-07-29T11:12:37;100439.47;;;20.51;73.47
81387;BME280;70842;50.744;7.114;2023-07-29T11:17:39;100428.16;;;19.99;75.13
81387;BME280;70842;50.744;7.114;2023-07-29T11:20:07;100432.63;;;20.76;74.92
81387;BME280;70842;50.744;7.114;2023-07-29T11:22:35;100441.44;;;20.91;74.49
81387;BME280;70842;50.744;7.114;2023-07-29T11:25:02;100439.53;;;21.07;71.60
81387;BME280;70842;50.744;7.114;2023-07-29T11:27:28;100435.91;;;20.99;74.67
81387;BME280;70842;50.744;7.114;2023-07-29T11:29:59;100433.03;;;20.73;72.32
81387;BME280;70842;50.744;7.114;2023-07-29T11:32:26;100438.75;;;20.91;74.36
81387;BME280;70842;50.744;7.114;2023-07-29T11:34:53;100428.53;;;20.53;73.02
81387;BME280;70842;50.744;7.114;2023-07-29T11:37:19;100435.75;;;20.52;74.50
81387;BME280;70842;50.744;7.114;2023-07-29T11:39:47;100437.59;;;21.00;75.36
81387;BME280;70842;50.744;7.114;2023-07-29T11:42:14;100439.28;;;20.74;75.17
81387;BME280;70842;50.744;7.114;2023-07-29T11:44:41;100433.25;;;20.51;74.48
81387;BME280;70842;50.744;7.114;2023-07-29T11:47:08;100436.06;;;20.91;72.92
81387;BME280;70842;50.744;7.114;2023-07-29T11:49:35;100430.72;;;20.98;73.20
81387;BME280;70842;50.744;7.114;2023-07-29T11:52:03;100412.19;;;21.10;72.49
81387;BME280;70842;50.744;7.114;2023-07-29T11:54:29;100418.44;;;21.17;70.08
81387;BME280;70842;50.744;7.114;2023-07-29T11:56:56;100407.34;;;20.71;71.86
81387;BME280;70842;50.744;7.114;2023-07-29T11:59:23;100394.16;;;20.82;72.24
81387;BME280;70842;50.744;7.114;2023-07-29T12:01:49;100390.22;;;20.85;70.22
81387;BME280;70842;50.744;7.114;2023-07-29T12:04:16;100388.97;;;20.81;70.02
81387;BME280;70842;50.744;7.114;2023-07-29T12:06:43;100396.31;;;21.75;69.75
81387;BME280;70842;50.744;7.114;2023-07-29T12:09:10;100403.97;;;21.78;68.85
81387;BME280;70842;50.744;7.114;2023-07-29T12:11:36;100406.13;;;21.89;69.81
81387;BME280;70842;50.744;7.114;2023-07-29T12:14:03;100395.59;;;22.27;69.57
81387;BME280;70842;50.744;7.114;2023-07-29T12:16:29;100402.09;;;22.59;69.07
81387;BME280;70842;50.744;7.114;2023-07-29T12:19:01;100391.38;;;21.85;65.91
81387;BME280;70842;50.744;7.114;2023-07-29T12:21:28;100396.88;;;22.31;66.96
81387;BME280;70842;50.744;7.114;2023-07-29T12:23:55;100391.88;;;22.87;66.90
81387;BME280;70842;50.744;7.114;2023-07-29T12:26:28;100391.81;;;23.39;65.13
81387;BME280;70842;50.744;7.114;2023-07-29T12:28:54;100391.72;;;22.69;64.21
81387;BME280;70842;50.744;7.114;2023-07-29T12:31:30;100388.38;;;22.47;66.53
81387;BME280;70842;50.744;7.114;2023-07-29T12:33:57;100386.69;;;23.05;63.25
81387;BME280;70842;50.744;7.114;2023-07-29T12:36:43;100379.81;;;22.96;63.97
81387;BME280;70842;50.744;7.114;2023-07-29T12:39:20;100382.69;;;23.14;62.99
81387;BME280;70842;50.744;7.114;2023-07-29T12:41:48;100376.41;;;23.26;62.63
81387;BME280;70842;50.744;7.114;2023-07-29T12:44:14;100376.50;;;23.64;62.50
81387;BME280;70842;50.744;7.114;2023-07-29T12:46:42;100368.13;;;24.35;60.98
81387;BME280;70842;50.744;7.114;2023-07-29T12:49:08;100370.41;;;24.38;60.54
81387;BME280;70842;50.744;7.114;2023-07-29T12:51:35;100369.53;;;24.44;59.26
81387;BME280;70842;50.744;7.114;2023-07-29T12:54:03;100363.16;;;24.56;58.74
81387;BME280;70842;50.744;7.114;2023-07-29T12:56:33;100360.78;;;24.66;57.74
81387;BME280;70842;50.744;7.114;2023-07-29T12:59:01;100349.34;;;24.89;58.06
81387;BME280;70842;50.744;7.114;2023-07-29T13:01:28;100356.72;;;25.18;57.40
81387;BME280;70842;50.744;7.114;2023-07-29T13:03:55;100356.53;;;24.77;58.30
81387;BME280;70842;50.744;7.114;2023-07-29T13:06:22;100359.59;;;24.87;56.08
81387;BME280;70842;50.744;7.114;2023-07-29T13:08:49;100356.28;;;25.21;57.14
81387;BME280;70842;50.744;7.114;2023-07-29T13:11:16;100352.19;;;24.51;59.34